createdAt,value
2019-06-20T00:01:53.408Z,18.34
2019-06-20T00:04:22.097Z,18.24
2019-06-20T00:06:50.670Z,18.18
2019-06-20T00:09:19.363Z,18.18
2019-06-20T00:11:48.081Z,18.30
2019-06-20T00:14:16.717Z,18.28
2019-06-20T00:16:45.334Z,18.37
2019-06-20T00:19:14.034Z,18.41
2019-06-20T00:21:42.606Z,18.61
2019-06-20T00:24:11.299Z,18.75
2019-06-20T00:26:39.920Z,18.65
2019-06-20T00:29:08.738Z,18.59
2019-06-20T00:31:37.379Z,18.45
2019-06-20T00:34:05.986Z,18.53
2019-06-20T00:36:34.609Z,18.47
2019-06-20T00:41:52.500Z,18.32
2019-06-20T00:44:21.140Z,18.33
2019-06-20T00:46:49.766Z,18.32
2019-06-20T00:49:18.415Z,18.30
2019-06-20T00:51:47.026Z,18.30
2019-06-20T00:54:15.723Z,18.33
2019-06-20T00:56:44.384Z,18.36
2019-06-20T00:59:13.044Z,18.34
2019-06-20T01:01:41.732Z,18.19
2019-06-20T01:04:10.452Z,18.34
2019-06-20T01:06:39.154Z,18.35
2019-06-20T01:09:47.602Z,18.35
2019-06-20T01:12:16.320Z,18.33
2019-06-20T01:14:45.038Z,18.27
2019-06-20T01:17:13.693Z,18.23
2019-06-20T01:19:42.321Z,18.15
2019-06-20T01:22:10.930Z,18.13
2019-06-20T01:24:39.623Z,18.21
2019-06-20T01:27:08.385Z,18.16
2019-06-20T01:29:37.091Z,18.10
2019-06-20T01:32:05.722Z,18.06
2019-06-20T01:34:34.502Z,18.04
2019-06-20T01:37:03.073Z,18.06
2019-06-20T01:39:31.736Z,18.07
2019-06-20T01:42:00.411Z,18.08
2019-06-20T01:44:29.100Z,18.04
2019-06-20T01:46:57.694Z,18.05
2019-06-20T01:49:26.272Z,18.07
2019-06-20T01:51:54.909Z,18.10
2019-06-20T01:54:23.530Z,18.08
2019-06-20T01:56:52.253Z,18.10
2019-06-20T01:59:20.930Z,18.14
2019-06-20T02:01:49.583Z,18.14
2019-06-20T02:04:18.524Z,18.19
2019-06-20T02:06:47.336Z,18.23
2019-06-20T02:09:16.023Z,18.27
2019-06-20T02:11:44.668Z,18.30
2019-06-20T02:14:13.348Z,18.30
2019-06-20T02:16:41.974Z,18.24
2019-06-20T02:19:10.602Z,18.18
2019-06-20T02:21:39.256Z,18.02
2019-06-20T02:24:47.692Z,17.94
2019-06-20T02:27:16.335Z,17.91
2019-06-20T02:29:44.947Z,17.94
2019-06-20T02:32:13.594Z,17.96
2019-06-20T02:34:42.287Z,17.93
2019-06-20T02:37:10.976Z,17.91
2019-06-20T02:39:39.612Z,17.84
2019-06-20T02:42:08.394Z,17.83
2019-06-20T02:44:37.031Z,17.82
2019-06-20T02:47:05.722Z,17.79
2019-06-20T02:49:34.399Z,17.67
2019-06-20T02:52:42.880Z,17.70
2019-06-20T02:55:11.526Z,17.72
2019-06-20T02:57:40.213Z,17.72
2019-06-20T03:00:48.640Z,17.75
2019-06-20T03:03:17.321Z,17.77
2019-06-20T03:05:45.962Z,17.83
2019-06-20T03:08:14.630Z,17.81
2019-06-20T03:10:43.277Z,17.90
2019-06-20T03:13:11.959Z,17.94
2019-06-20T03:15:40.644Z,17.95
2019-06-20T03:18:09.326Z,18.07
2019-06-20T03:20:37.957Z,18.05
2019-06-20T03:23:06.643Z,17.98
2019-06-20T03:26:15.098Z,17.91
2019-06-20T03:28:43.752Z,17.88
2019-06-20T03:31:12.378Z,17.82
2019-06-20T03:33:40.883Z,17.86
2019-06-20T03:36:09.575Z,17.86
2019-06-20T03:38:38.088Z,17.86
2019-06-20T03:41:06.775Z,17.70
2019-06-20T03:43:35.343Z,17.60
2019-06-20T03:46:04.033Z,17.56
2019-06-20T03:48:32.694Z,17.62
2019-06-20T03:51:01.344Z,17.56
2019-06-20T03:53:29.958Z,17.57
2019-06-20T03:55:58.575Z,17.58
2019-06-20T03:58:27.148Z,17.55
2019-06-20T04:00:55.780Z,17.63
2019-06-20T04:03:24.366Z,17.61
2019-06-20T04:05:53.048Z,17.63
2019-06-20T04:08:21.620Z,17.73
2019-06-20T04:10:50.830Z,17.65
2019-06-20T04:13:20.862Z,17.72
2019-06-20T04:15:49.319Z,17.68
2019-06-20T04:18:17.900Z,17.69
2019-06-20T04:20:46.510Z,17.70
2019-06-20T04:23:15.152Z,17.67
2019-06-20T04:26:03.007Z,17.66
2019-06-20T04:28:31.586Z,17.66
2019-06-20T04:31:00.240Z,17.60
2019-06-20T04:33:28.926Z,17.49
2019-06-20T04:36:16.725Z,17.46
2019-06-20T04:42:32.908Z,17.43
2019-06-20T04:48:02.974Z,17.25
2019-06-20T04:50:31.601Z,17.20
2019-06-20T04:53:00.290Z,17.18
2019-06-20T04:55:28.948Z,17.02
2019-06-20T04:57:57.488Z,17.06
2019-06-20T05:00:26.124Z,17.00
2019-06-20T05:02:54.808Z,16.96
2019-06-20T05:05:23.448Z,16.96
2019-06-20T05:07:52.050Z,16.95
2019-06-20T05:10:20.696Z,17.00
2019-06-20T05:12:49.394Z,16.98
2019-06-20T05:15:51.346Z,17.03
2019-06-20T05:21:11.261Z,16.96
2019-06-20T05:23:59.023Z,16.97
2019-06-20T05:26:27.678Z,17.00
2019-06-20T05:29:15.723Z,17.08
2019-06-20T05:32:03.664Z,17.09
2019-06-20T05:34:51.637Z,17.10
2019-06-20T05:37:21.201Z,17.12
2019-06-20T05:39:51.470Z,17.11
2019-06-20T05:42:20.154Z,17.07
2019-06-20T05:44:48.717Z,17.09
2019-06-20T05:47:17.418Z,17.23
2019-06-20T05:49:45.975Z,17.26
2019-06-20T05:52:14.571Z,17.09
2019-06-20T05:54:43.366Z,16.93
2019-06-20T05:57:12.072Z,17.06
2019-06-20T05:59:40.709Z,17.12
2019-06-20T06:02:09.488Z,17.17
2019-06-20T06:04:38.159Z,17.24
2019-06-20T06:07:06.763Z,17.33
2019-06-20T06:09:35.357Z,17.40
2019-06-20T06:14:38.010Z,17.63
2019-06-20T06:17:06.854Z,17.68
2019-06-20T06:19:35.506Z,17.73
2019-06-20T06:22:04.341Z,17.86
2019-06-20T06:24:33.120Z,17.85
2019-06-20T06:27:01.677Z,18.05
2019-06-20T06:29:30.367Z,18.26
2019-06-20T06:31:59.044Z,18.51
2019-06-20T06:34:27.704Z,18.90
2019-06-20T06:37:15.659Z,19.18
2019-06-20T06:39:44.268Z,19.26
2019-06-20T06:42:13.267Z,19.54
2019-06-20T06:44:42.068Z,19.48
2019-06-20T06:53:50.950Z,19.73
2019-06-20T06:56:19.479Z,19.97
2019-06-20T06:58:48.048Z,20.07
2019-06-20T07:01:16.750Z,19.95
2019-06-20T07:03:45.483Z,19.98
2019-06-20T07:06:14.098Z,19.91
2019-06-20T07:08:42.795Z,20.14
2019-06-20T07:11:11.513Z,20.32
2019-06-20T07:13:40.142Z,21.08
2019-06-20T07:16:08.781Z,21.78
2019-06-20T07:18:37.313Z,22.22
2019-06-20T07:21:05.975Z,21.96
2019-06-20T07:23:34.447Z,21.94
2019-06-20T07:26:03.040Z,22.08
2019-06-20T07:28:31.578Z,21.90
2019-06-20T07:31:00.227Z,22.31
2019-06-20T07:33:28.696Z,23.06
2019-06-20T07:35:57.350Z,22.35
2019-06-20T07:38:25.926Z,22.79
2019-06-20T07:40:54.537Z,22.99
2019-06-20T07:43:23.100Z,23.13
2019-06-20T07:46:01.970Z,23.80
2019-06-20T07:48:22.018Z,23.88
2019-06-20T07:50:50.669Z,24.38
2019-06-20T07:53:19.145Z,23.97
2019-06-20T07:55:47.795Z,23.38
2019-06-20T07:58:16.299Z,22.92
2019-06-20T08:00:44.953Z,22.60
2019-06-20T08:03:13.493Z,21.66
2019-06-20T08:05:42.088Z,21.33
2019-06-20T08:08:10.627Z,21.77
2019-06-20T08:10:39.198Z,22.87
2019-06-20T08:13:07.776Z,23.35
2019-06-20T08:15:36.355Z,22.71
2019-06-20T08:18:44.848Z,22.05
2019-06-20T08:21:13.463Z,21.84
2019-06-20T08:23:42.068Z,21.79
2019-06-20T08:26:10.728Z,22.26
2019-06-20T08:28:39.260Z,22.66
2019-06-20T08:31:07.888Z,22.78
2019-06-20T08:33:36.428Z,23.13
2019-06-20T08:36:44.959Z,23.40
2019-06-20T08:39:13.621Z,22.54
2019-06-20T08:41:42.136Z,22.26
2019-06-20T08:44:10.778Z,22.32
2019-06-20T08:46:39.392Z,22.31
2019-06-20T08:49:08.033Z,21.94
2019-06-20T08:51:36.565Z,22.02
2019-06-20T08:54:44.993Z,22.12
2019-06-20T08:57:13.541Z,21.80
2019-06-20T08:59:42.197Z,22.63
2019-06-20T09:02:10.788Z,23.03
2019-06-20T09:04:39.443Z,22.57
2019-06-20T09:07:08.058Z,22.63
2019-06-20T09:09:36.636Z,23.13
2019-06-20T09:12:05.324Z,22.93
2019-06-20T09:14:33.966Z,22.97
2019-06-20T09:17:02.923Z,23.09
2019-06-20T09:19:32.869Z,23.43
2019-06-20T09:22:01.468Z,23.40
2019-06-20T09:24:30.129Z,23.46
2019-06-20T09:26:59.371Z,23.74
2019-06-20T09:29:41.119Z,23.47
2019-06-20T09:32:00.042Z,23.41
2019-06-20T09:34:29.764Z,23.38
2019-06-20T09:36:59.313Z,23.42
2019-06-20T09:39:28.597Z,23.61
2019-06-20T09:41:57.245Z,23.66
2019-06-20T09:44:25.857Z,23.64
2019-06-20T09:46:56.248Z,23.82
2019-06-20T09:49:24.809Z,23.84
2019-06-20T09:51:54.181Z,23.99
2019-06-20T09:54:23.732Z,24.54
2019-06-20T09:56:54.970Z,24.37
2019-06-20T09:59:27.587Z,24.09
2019-06-20T10:01:53.461Z,24.27
2019-06-20T10:04:23.392Z,24.34
2019-06-20T10:06:52.306Z,24.33
2019-06-20T10:09:21.014Z,24.27
2019-06-20T10:11:49.777Z,24.29
2019-06-20T10:14:58.118Z,24.13
2019-06-20T10:17:26.782Z,23.76
2019-06-20T10:19:56.318Z,23.31
2019-06-20T10:22:25.678Z,23.34
2019-06-20T10:24:54.155Z,23.38
2019-06-20T10:27:22.910Z,23.31
2019-06-20T10:29:51.511Z,23.20
2019-06-20T10:32:20.165Z,22.69
2019-06-20T10:34:48.765Z,22.95
2019-06-20T10:37:17.279Z,23.27
2019-06-20T10:40:25.672Z,23.84
2019-06-20T10:42:54.239Z,24.18
2019-06-20T10:46:02.633Z,24.44
2019-06-20T10:48:31.351Z,24.65
2019-06-20T10:53:39.165Z,24.74
2019-06-20T10:56:07.777Z,25.20
2019-06-20T10:59:16.217Z,25.71
2019-06-20T11:01:46.498Z,26.21
2019-06-20T11:04:15.187Z,26.15
2019-06-20T11:06:43.850Z,25.91
2019-06-20T11:09:14.087Z,25.81
2019-06-20T11:11:43.047Z,25.87
2019-06-20T11:14:12.976Z,25.86
2019-06-20T11:16:42.198Z,25.68
2019-06-20T11:19:11.961Z,25.81
2019-06-20T11:21:41.615Z,26.60
2019-06-20T11:24:10.850Z,26.85
2019-06-20T11:26:39.428Z,26.55
2019-06-20T11:29:08.044Z,26.72
2019-06-20T11:31:37.618Z,26.65
2019-06-20T11:34:06.947Z,26.13
2019-06-20T11:36:36.967Z,26.23
2019-06-20T11:42:06.818Z,25.59
2019-06-20T11:44:36.987Z,25.18
2019-06-20T11:47:05.811Z,25.13
2019-06-20T11:49:35.213Z,25.07
2019-06-20T11:52:04.757Z,25.39
2019-06-20T11:54:34.423Z,25.72
2019-06-20T11:57:03.581Z,25.89
2019-06-20T11:59:32.226Z,26.15
2019-06-20T12:02:00.768Z,26.43
2019-06-20T12:04:29.413Z,26.14
2019-06-20T12:06:58.074Z,26.26
2019-06-20T12:09:26.655Z,26.25
2019-06-20T12:11:55.189Z,26.32
2019-06-20T12:14:23.869Z,26.09
2019-06-20T12:16:52.483Z,25.33
2019-06-20T12:19:21.126Z,25.18
2019-06-20T12:21:49.656Z,25.02
2019-06-20T12:24:18.294Z,25.02
2019-06-20T12:26:46.950Z,25.18
2019-06-20T12:29:27.240Z,24.28
2019-06-20T12:31:56.283Z,23.86
2019-06-20T12:34:26.002Z,23.29
2019-06-20T12:36:54.663Z,23.20
2019-06-20T12:39:23.194Z,23.25
2019-06-20T12:41:51.724Z,22.89
2019-06-20T12:44:20.308Z,23.06
2019-06-20T12:46:49.118Z,23.05
2019-06-20T12:49:19.185Z,23.00
2019-06-20T12:51:49.002Z,22.63
2019-06-20T12:54:18.027Z,22.80
2019-06-20T12:56:46.571Z,22.60
2019-06-20T12:59:15.117Z,22.74
2019-06-20T13:01:46.519Z,23.04
2019-06-20T13:04:14.073Z,23.34
2019-06-20T13:06:42.707Z,23.36
2019-06-20T13:09:11.317Z,23.40
2019-06-20T13:11:40.736Z,23.02
2019-06-20T13:14:10.158Z,22.62
2019-06-20T13:16:39.024Z,22.65
2019-06-20T13:19:09.156Z,22.25
2019-06-20T13:21:38.834Z,21.00
2019-06-20T13:24:07.993Z,19.73
2019-06-20T13:26:36.563Z,17.78
2019-06-20T13:32:04.426Z,16.92
2019-06-20T13:34:30.588Z,16.77
2019-06-20T13:36:59.167Z,16.87
2019-06-20T13:39:27.796Z,17.22
2019-06-20T13:41:56.485Z,17.79
2019-06-20T13:44:25.140Z,18.32
2019-06-20T13:46:53.689Z,18.77
2019-06-20T13:49:22.252Z,19.30
2019-06-20T13:51:50.921Z,19.77
2019-06-20T13:54:19.512Z,20.19
2019-06-20T13:56:48.084Z,20.59
2019-06-20T13:59:16.556Z,20.86
2019-06-20T14:01:46.162Z,21.03
2019-06-20T14:04:15.451Z,21.06
2019-06-20T14:06:45.407Z,21.19
2019-06-20T14:09:14.398Z,21.16
2019-06-20T14:11:43.239Z,21.32
2019-06-20T14:14:13.368Z,21.48
2019-06-20T14:16:42.979Z,21.75
2019-06-20T14:19:12.378Z,22.17
2019-06-20T14:21:42.484Z,22.41
2019-06-20T14:24:11.289Z,22.80
2019-06-20T14:26:43.228Z,23.07
2019-06-20T14:29:10.262Z,23.35
2019-06-20T14:31:38.795Z,23.38
2019-06-20T14:34:07.372Z,23.19
2019-06-20T14:36:36.022Z,22.96
2019-06-20T14:39:45.005Z,23.00
2019-06-20T14:42:14.767Z,23.08
2019-06-20T14:44:44.651Z,23.16
2019-06-20T14:47:13.614Z,23.20
2019-06-20T14:49:42.211Z,23.29
2019-06-20T14:52:10.865Z,23.32
2019-06-20T14:54:39.463Z,23.45
2019-06-20T14:57:08.129Z,23.23
2019-06-20T14:59:36.732Z,23.18
2019-06-20T15:02:05.406Z,23.13
2019-06-20T15:04:33.990Z,22.94
2019-06-20T15:07:02.598Z,22.98
2019-06-20T15:09:31.201Z,23.24
2019-06-20T15:11:59.804Z,23.60
2019-06-20T15:14:28.490Z,23.80
2019-06-20T15:16:57.161Z,23.68
2019-06-20T15:19:25.816Z,23.61
2019-06-20T15:21:54.353Z,23.74
2019-06-20T15:24:22.937Z,23.51
2019-06-20T15:26:52.462Z,23.64
2019-06-20T15:29:21.775Z,23.86
2019-06-20T15:31:50.613Z,24.15
2019-06-20T15:34:20.545Z,24.57
2019-06-20T15:36:50.252Z,24.83
2019-06-20T15:39:19.524Z,24.58
2019-06-20T15:41:49.671Z,24.54
2019-06-20T15:44:18.515Z,24.46
2019-06-20T15:46:48.394Z,23.77
2019-06-20T15:49:17.436Z,23.69
2019-06-20T15:51:45.951Z,23.80
2019-06-20T15:54:14.580Z,23.88
2019-06-20T15:56:43.212Z,24.06
2019-06-20T15:59:11.754Z,24.00
2019-06-20T16:01:40.405Z,24.01
2019-06-20T16:04:09.062Z,24.14
2019-06-20T16:06:37.671Z,24.10
2019-06-20T16:09:46.095Z,24.20
2019-06-20T16:12:14.689Z,24.09
2019-06-20T16:14:43.277Z,24.08
2019-06-20T16:17:11.878Z,23.89
2019-06-20T16:19:40.459Z,23.85
2019-06-20T16:22:09.011Z,24.01
2019-06-20T16:24:37.596Z,24.14
2019-06-20T16:27:06.217Z,24.12
2019-06-20T16:29:34.775Z,23.88
2019-06-20T16:32:03.388Z,23.52
2019-06-20T16:34:32.041Z,23.74
2019-06-20T16:37:09.692Z,23.87
2019-06-20T16:39:30.931Z,23.49
2019-06-20T16:41:59.608Z,23.65
2019-06-20T16:44:28.085Z,23.58
2019-06-20T16:46:56.688Z,23.68
2019-06-20T16:49:25.314Z,23.69
2019-06-20T16:51:53.881Z,23.48
2019-06-20T16:54:22.389Z,23.23
2019-06-20T16:56:51.010Z,23.05
2019-06-20T16:59:19.670Z,22.87
2019-06-20T17:01:48.262Z,22.93
2019-06-20T17:04:16.889Z,22.78
2019-06-20T17:06:45.473Z,22.84
2019-06-20T17:09:14.048Z,22.75
2019-06-20T17:11:42.659Z,22.98
2019-06-20T17:14:11.224Z,23.15
2019-06-20T17:16:39.837Z,23.30
2019-06-20T17:19:08.443Z,23.64
2019-06-20T17:21:37.050Z,23.58
2019-06-20T17:24:45.482Z,23.50
2019-06-20T17:27:14.083Z,23.30
2019-06-20T17:29:42.628Z,23.17
2019-06-20T17:32:11.267Z,23.19
2019-06-20T17:34:39.869Z,23.11
2019-06-20T17:37:08.450Z,23.24
2019-06-20T17:39:37.055Z,22.95
2019-06-20T17:42:05.728Z,23.06
2019-06-20T17:44:34.370Z,22.75
2019-06-20T17:47:02.973Z,22.54
2019-06-20T17:49:31.531Z,22.43
2019-06-20T17:52:00.071Z,22.33
2019-06-20T17:54:28.666Z,22.33
2019-06-20T17:56:58.997Z,22.25
2019-06-20T17:59:27.652Z,22.01
2019-06-20T18:01:56.307Z,21.85
2019-06-20T18:04:26.888Z,21.85
2019-06-20T18:06:55.300Z,21.58
2019-06-20T18:09:23.960Z,21.41
2019-06-20T18:11:52.436Z,21.12
2019-06-20T18:14:21.083Z,20.93
2019-06-20T18:16:49.748Z,20.85
2019-06-20T18:19:18.351Z,20.74
2019-06-20T18:21:46.926Z,20.57
2019-06-20T18:27:23.630Z,20.40
2019-06-20T18:32:26.492Z,20.43
2019-06-20T18:35:02.025Z,20.50
2019-06-20T18:37:31.495Z,20.61
2019-06-20T18:39:55.662Z,20.63
2019-06-20T18:42:24.262Z,20.73
2019-06-20T18:44:52.911Z,20.82
2019-06-20T18:47:22.083Z,20.90
2019-06-20T18:49:51.755Z,20.91
2019-06-20T18:52:32.045Z,21.00
2019-06-20T18:55:00.665Z,21.03
2019-06-20T18:57:29.322Z,21.05
2019-06-20T18:59:57.859Z,21.06
2019-06-20T19:02:26.518Z,21.05
2019-06-20T19:04:55.052Z,21.00
2019-06-20T19:07:23.594Z,21.01
2019-06-20T19:09:52.241Z,20.93
2019-06-20T19:12:20.851Z,20.75
2019-06-20T19:14:49.512Z,20.75
2019-06-20T19:17:18.173Z,20.64
2019-06-20T19:19:46.705Z,20.55
2019-06-20T19:22:15.172Z,20.53
2019-06-20T19:24:43.851Z,20.47
2019-06-20T19:27:12.452Z,20.15
2019-06-20T19:29:41.099Z,19.99
2019-06-20T19:32:09.842Z,19.68
2019-06-20T19:34:38.488Z,19.59
2019-06-20T19:37:07.098Z,19.53
2019-06-20T19:39:35.741Z,19.40
2019-06-20T19:42:04.432Z,19.36
2019-06-20T19:44:33.010Z,19.34
2019-06-20T19:47:01.733Z,19.21
2019-06-20T19:52:32.370Z,19.00
2019-06-20T19:55:01.000Z,18.96
2019-06-20T19:57:29.629Z,18.88
2019-06-20T19:59:58.278Z,18.91
2019-06-20T20:02:26.887Z,18.76
2019-06-20T20:04:55.551Z,18.72
2019-06-20T20:07:24.258Z,18.58
2019-06-20T20:09:52.872Z,18.58
2019-06-20T20:12:21.611Z,18.57
2019-06-20T20:14:50.162Z,18.43
2019-06-20T20:17:18.835Z,18.38
2019-06-20T20:19:47.554Z,18.41
2019-06-20T20:22:27.815Z,18.41
2019-06-20T20:24:56.433Z,18.33
2019-06-20T20:27:25.078Z,18.21
2019-06-20T20:29:53.776Z,18.12
2019-06-20T20:32:22.383Z,18.12
2019-06-20T20:34:51.001Z,18.01
2019-06-20T20:37:19.603Z,17.98
2019-06-20T20:39:48.212Z,17.92
2019-06-20T20:42:17.810Z,17.93
2019-06-20T20:44:47.154Z,17.91
2019-06-20T20:47:15.802Z,17.88
2019-06-20T20:49:44.458Z,17.84
2019-06-20T20:52:13.044Z,17.83
2019-06-20T20:54:41.592Z,17.81
2019-06-20T20:57:10.260Z,17.67
2019-06-20T20:59:38.882Z,17.60
2019-06-20T21:02:07.523Z,17.51
2019-06-20T21:04:35.999Z,17.49
2019-06-20T21:07:04.652Z,17.47
2019-06-20T21:09:33.204Z,17.45
2019-06-20T21:12:01.847Z,17.44
2019-06-20T21:14:30.468Z,17.44
2019-06-20T21:16:59.058Z,17.42
2019-06-20T21:19:27.682Z,17.40
2019-06-20T21:21:56.338Z,17.42
2019-06-20T21:24:24.968Z,17.49
2019-06-20T21:26:53.596Z,17.47
2019-06-20T21:29:22.150Z,17.57
2019-06-20T21:31:50.683Z,17.55
2019-06-20T21:34:19.235Z,17.55
2019-06-20T21:36:47.784Z,17.59
2019-06-20T21:39:16.432Z,17.56
2019-06-20T21:41:45.039Z,17.55
2019-06-20T21:44:13.723Z,17.61
2019-06-20T21:46:42.339Z,17.63
2019-06-20T21:49:10.995Z,17.72
2019-06-20T21:51:39.651Z,17.67
2019-06-20T21:54:08.188Z,17.57
2019-06-20T21:56:36.859Z,17.51
2019-06-20T21:59:05.484Z,17.49
2019-06-20T22:04:29.258Z,17.54
2019-06-20T22:06:57.941Z,17.35
2019-06-20T22:09:26.593Z,17.33
2019-06-20T22:11:55.219Z,17.32
2019-06-20T22:14:23.796Z,17.31
2019-06-20T22:20:00.583Z,17.28
2019-06-20T22:22:29.046Z,17.26
2019-06-20T22:24:57.674Z,17.23
2019-06-20T22:27:26.329Z,17.22
2019-06-20T22:29:54.999Z,17.25
2019-06-20T22:32:23.639Z,17.26
2019-06-20T22:34:52.231Z,17.27
2019-06-20T22:37:20.749Z,17.29
2019-06-20T22:39:49.296Z,17.09
2019-06-20T22:42:17.876Z,17.09
2019-06-20T22:44:46.446Z,17.13
2019-06-20T22:47:15.039Z,17.16
2019-06-20T22:49:43.506Z,17.13
2019-06-20T22:52:12.166Z,17.10
2019-06-20T22:54:40.699Z,17.18
2019-06-20T22:57:09.405Z,17.12
2019-06-20T22:59:37.941Z,17.02
2019-06-20T23:02:06.593Z,16.94
2019-06-20T23:04:35.131Z,16.93
2019-06-20T23:07:03.803Z,16.80
2019-06-20T23:09:32.309Z,16.77
2019-06-20T23:12:00.873Z,16.77
2019-06-20T23:14:29.545Z,16.79
2019-06-20T23:16:58.232Z,16.73
2019-06-20T23:19:26.836Z,16.75
2019-06-20T23:21:55.472Z,16.75
2019-06-20T23:24:24.028Z,16.77
2019-06-20T23:26:52.618Z,16.80
2019-06-20T23:29:40.323Z,16.87
2019-06-20T23:32:08.942Z,16.86
2019-06-20T23:34:37.525Z,16.80
2019-06-20T23:37:12.539Z,16.78
2019-06-20T23:39:36.509Z,16.77
2019-06-20T23:42:05.157Z,16.74
2019-06-20T23:44:33.784Z,16.76
2019-06-20T23:47:02.386Z,16.79
2019-06-20T23:49:30.846Z,16.77
2019-06-20T23:52:18.549Z,16.67
2019-06-20T23:54:47.056Z,16.63
2019-06-20T23:57:15.671Z,16.59
2019-06-20T23:59:44.255Z,16.58
